createdAt,value
2023-01-18T00:33:49.857Z,98742.00
2023-01-18T00:36:19.382Z,98721.00
2023-01-18T00:38:52.357Z,98753.00
2023-01-18T00:41:21.692Z,98745.00
2023-01-18T00:43:49.274Z,98745.00
2023-01-18T00:46:20.001Z,98682.00
2023-01-18T00:48:51.126Z,98709.00
2023-01-18T00:51:22.598Z,98741.00
2023-01-18T00:53:51.626Z,98715.00
2023-01-18T00:56:23.557Z,98711.00
2023-01-18T00:58:51.912Z,98716.00
2023-01-18T01:01:20.556Z,98760.00
2023-01-18T01:04:07.870Z,98706.00
2023-01-18T01:06:47.103Z,98691.00
2023-01-18T01:09:18.567Z,98747.00
2023-01-18T01:12:01.379Z,98728.00
2023-01-18T01:14:47.477Z,98762.00
2023-01-18T01:17:33.199Z,98748.00
2023-01-18T01:20:20.259Z,98733.00
2023-01-18T01:23:06.057Z,98730.00
2023-01-18T01:25:52.016Z,98738.00
2023-01-18T01:28:20.459Z,98765.00
2023-01-18T01:30:49.287Z,98755.00
2023-01-18T01:33:19.544Z,98756.00
2023-01-18T01:35:49.938Z,98769.00
2023-01-18T01:38:18.172Z,98755.00
2023-01-18T01:40:56.992Z,98714.00
2023-01-18T01:43:40.955Z,98745.00
2023-01-18T01:46:30.546Z,98781.00
2023-01-18T01:49:07.833Z,98766.00
2023-01-18T01:51:40.676Z,98774.00
2023-01-18T01:54:14.206Z,98743.00
2023-01-18T01:56:44.022Z,98755.00
2023-01-18T01:59:12.971Z,98750.00
2023-01-18T02:01:44.539Z,98740.00
2023-01-18T02:04:13.703Z,98745.00
2023-01-18T02:06:43.568Z,98717.00
2023-01-18T02:09:16.865Z,98745.00
2023-01-18T02:11:45.560Z,98758.00
2023-01-18T02:14:16.995Z,98762.00
2023-01-18T02:17:01.789Z,98777.00
2023-01-18T02:20:24.058Z,98779.00
2023-01-18T02:23:24.837Z,98756.00
2023-01-18T02:26:45.128Z,98784.00
2023-01-18T02:29:18.640Z,98799.00
2023-01-18T02:32:04.902Z,98766.00
2023-01-18T02:34:42.979Z,98758.00
2023-01-18T02:37:22.452Z,98768.00
2023-01-18T02:40:07.119Z,98766.00
2023-01-18T02:42:56.070Z,98746.00
2023-01-18T02:45:48.617Z,98761.00
2023-01-18T02:48:17.380Z,98805.00
2023-01-18T02:50:45.928Z,98753.00
2023-01-18T02:53:15.287Z,98810.00
2023-01-18T02:55:50.682Z,98769.00
2023-01-18T02:58:26.023Z,98811.00
2023-01-18T03:01:02.561Z,98741.00
2023-01-18T03:03:31.213Z,98792.00
2023-01-18T03:06:02.672Z,98726.00
2023-01-18T03:08:37.053Z,98772.00
2023-01-18T03:11:14.005Z,98747.00
2023-01-18T03:13:59.229Z,98808.00
2023-01-18T03:16:42.612Z,98805.00
2023-01-18T03:19:33.071Z,98791.00
2023-01-18T03:22:03.293Z,98803.00
2023-01-18T03:24:31.372Z,98779.00
2023-01-18T03:27:18.470Z,98807.00
2023-01-18T03:30:05.241Z,98759.00
2023-01-18T03:32:53.580Z,98794.00
2023-01-18T03:35:26.865Z,98772.00
2023-01-18T03:37:57.666Z,98813.00
2023-01-18T03:40:30.402Z,98786.00
2023-01-18T03:43:06.355Z,98809.00
2023-01-18T03:45:38.622Z,98803.00
2023-01-18T03:48:10.395Z,98779.00
2023-01-18T03:50:48.766Z,98785.00
2023-01-18T03:53:32.804Z,98755.00
2023-01-18T03:56:06.328Z,98823.00
2023-01-18T03:58:37.997Z,98767.00
2023-01-18T04:01:06.715Z,98825.00
2023-01-18T04:03:37.216Z,98821.00
2023-01-18T04:06:08.992Z,98773.00
2023-01-18T04:08:37.213Z,98836.00
2023-01-18T04:11:05.615Z,98817.00
2023-01-18T04:13:33.861Z,98793.00
2023-01-18T04:16:02.113Z,98822.00
2023-01-18T04:18:30.328Z,98779.00
2023-01-18T04:20:59.994Z,98804.00
2023-01-18T04:23:28.349Z,98805.00
2023-01-18T04:25:56.570Z,98838.00
2023-01-18T04:28:26.278Z,98795.00
2023-01-18T04:30:55.549Z,98842.00
2023-01-18T04:33:26.869Z,98836.00
2023-01-18T04:35:55.315Z,98805.00
2023-01-18T04:38:26.128Z,98784.00
2023-01-18T04:40:54.396Z,98795.00
2023-01-18T04:43:22.680Z,98824.00
2023-01-18T04:45:56.892Z,98822.00
2023-01-18T04:48:26.433Z,98818.00
2023-01-18T04:50:54.760Z,98821.00
2023-01-18T04:53:23.411Z,98849.00
2023-01-18T04:55:53.096Z,98809.00
2023-01-18T04:58:21.451Z,98814.00
2023-01-18T05:00:49.896Z,98842.00
2023-01-18T05:03:18.248Z,98822.00
2023-01-18T05:05:46.521Z,98851.00
2023-01-18T05:08:14.841Z,98797.00
2023-01-18T05:10:43.216Z,98838.00
2023-01-18T05:13:12.979Z,98826.00
2023-01-18T05:15:41.324Z,98818.00
2023-01-18T05:18:09.681Z,98837.00
2023-01-18T05:20:38.024Z,98826.00
2023-01-18T05:23:10.832Z,98879.00
2023-01-18T05:25:40.350Z,98786.00
2023-01-18T05:28:10.016Z,98829.00
2023-01-18T05:30:43.464Z,98860.00
2023-01-18T05:33:11.846Z,98863.00
2023-01-18T05:35:40.257Z,98845.00
2023-01-18T05:38:08.685Z,98831.00
2023-01-18T05:40:37.058Z,98857.00
2023-01-18T05:43:05.433Z,98861.00
2023-01-18T05:45:34.435Z,98870.00
2023-01-18T05:48:05.143Z,98901.00
2023-01-18T05:50:33.490Z,98883.00
2023-01-18T05:53:02.301Z,98913.00
2023-01-18T05:55:30.556Z,98871.00
2023-01-18T05:57:58.943Z,98884.00
2023-01-18T06:00:27.491Z,98859.00
2023-01-18T06:02:56.442Z,98877.00
2023-01-18T06:05:26.656Z,98860.00
2023-01-18T06:07:55.181Z,98898.00
2023-01-18T06:10:23.533Z,98883.00
2023-01-18T06:12:52.351Z,98856.00
2023-01-18T06:15:20.672Z,98880.00
2023-01-18T06:17:49.047Z,98897.00
2023-01-18T06:20:18.211Z,98893.00
2023-01-18T06:22:48.306Z,98894.00
2023-01-18T06:25:16.830Z,98901.00
2023-01-18T06:27:45.099Z,98920.00
2023-01-18T06:30:14.323Z,98833.00
2023-01-18T06:32:42.587Z,98909.00
2023-01-18T06:35:11.209Z,98947.00
2023-01-18T06:37:39.522Z,98949.00
2023-01-18T06:40:11.829Z,98950.00
2023-01-18T06:42:40.533Z,98962.00
2023-01-18T06:45:10.375Z,98919.00
2023-01-18T06:47:38.655Z,98939.00
2023-01-18T06:50:08.252Z,98911.00
2023-01-18T06:52:36.939Z,98927.00
2023-01-18T06:55:10.760Z,98948.00
2023-01-18T06:57:39.215Z,98926.00
2023-01-18T07:00:10.370Z,98977.00
2023-01-18T07:02:38.843Z,98964.00
2023-01-18T07:05:08.041Z,98968.00
2023-01-18T07:07:36.782Z,98943.00
2023-01-18T07:10:05.644Z,98987.00
2023-01-18T07:12:56.723Z,98961.00
2023-01-18T07:15:25.919Z,98968.00
2023-01-18T07:17:58.552Z,98956.00
2023-01-18T07:20:27.504Z,98990.00
2023-01-18T07:22:56.694Z,99003.00
2023-01-18T07:25:27.395Z,99011.00
2023-01-18T07:27:58.426Z,98984.00
2023-01-18T07:30:26.737Z,98965.00
2023-01-18T07:41:38.894Z,99018.00
2023-01-18T07:44:10.320Z,99031.00
2023-01-18T07:46:38.971Z,99037.00
2023-01-18T07:49:07.286Z,99037.00
2023-01-18T07:51:35.574Z,99011.00
2023-01-18T07:54:03.912Z,99015.00
2023-01-18T07:56:32.745Z,99027.00
2023-01-18T07:59:01.065Z,99042.00
2023-01-18T08:01:30.935Z,99024.00
2023-01-18T08:03:59.426Z,99044.00
2023-01-18T08:06:28.736Z,99051.00
2023-01-18T08:08:58.505Z,99049.00
2023-01-18T08:11:28.372Z,99037.00
2023-01-18T08:13:56.833Z,99008.00
2023-01-18T08:16:27.036Z,99026.00
2023-01-18T08:18:57.529Z,99047.00
2023-01-18T08:21:26.413Z,99047.00
2023-01-18T08:23:55.400Z,99058.00
2023-01-18T08:26:23.979Z,99049.00
2023-01-18T08:28:52.405Z,99038.00
2023-01-18T08:31:23.219Z,99069.00
2023-01-18T08:33:52.982Z,99048.00
2023-01-18T08:36:26.201Z,99082.00
2023-01-18T08:38:57.043Z,99066.00
2023-01-18T08:41:28.721Z,99091.00
2023-01-18T08:43:58.927Z,99068.00
2023-01-18T08:46:28.209Z,99085.00
2023-01-18T08:49:00.020Z,99083.00
2023-01-18T08:51:30.265Z,99115.00
2023-01-18T08:54:00.151Z,99109.00
2023-01-18T08:56:35.935Z,99106.00
2023-01-18T08:59:04.985Z,99088.00
2023-01-18T09:01:34.962Z,99100.00
2023-01-18T09:04:29.331Z,99094.00
2023-01-18T09:08:12.145Z,99129.00
2023-01-18T09:10:41.749Z,99112.00
2023-01-18T09:13:11.021Z,99135.00
2023-01-18T09:16:01.046Z,99143.00
2023-01-18T09:18:47.310Z,99139.00
2023-01-18T09:21:17.504Z,99113.00
2023-01-18T09:23:51.796Z,99148.00
2023-01-18T09:26:21.781Z,99152.00
2023-01-18T09:28:57.019Z,99155.00
2023-01-18T09:31:29.185Z,99055.00
2023-01-18T09:34:18.113Z,99104.00
2023-01-18T09:36:47.742Z,99148.00
2023-01-18T09:39:17.518Z,99168.00
2023-01-18T09:48:55.576Z,99179.00
